sensor_id;sensor_type;location;lat;lon;timestamp;P1;durP1;ratioP1;P2;durP2;ratioP2
5682;SDS011;2864;49.220;8.654;2023-07-02T00:01:02;5.83;;;4.60;;
5682;SDS011;2864;49.220;8.654;2023-07-02T00:03:28;5.57;;;4.70;;
5682;SDS011;2864;49.220;8.654;2023-07-02T00:05:54;5.10;;;4.30;;
5682;SDS011;2864;49.220;8.654;2023-07-02T00:08:21;4.93;;;4.47;;
5682;SDS011;2864;49.220;8.654;2023-07-02T00:10:47;7.87;;;4.70;;
5682;SDS011;2864;49.220;8.654;2023-07-02T00:13:13;9.00;;;4.10;;
5682;SDS011;2864;49.220;8.654;2023-07-02T00:15:40;4.37;;;3.97;;
5682;SDS011;2864;49.220;8.654;2023-07-02T00:18:05;5.60;;;4.10;;
5682;SDS011;2864;49.220;8.654;2023-07-02T00:20:31;5.27;;;4.77;;
5682;SDS011;2864;49.220;8.654;2023-07-02T00:23:05;5.27;;;4.37;;
5682;SDS011;2864;49.220;8.654;2023-07-02T00:25:33;6.17;;;4.67;;
5682;SDS011;2864;49.220;8.654;2023-07-02T00:27:59;5.30;;;4.77;;
5682;SDS011;2864;49.220;8.654;2023-07-02T00:30:24;10.90;;;4.97;;
5682;SDS011;2864;49.220;8.654;2023-07-02T00:32:50;8.27;;;4.90;;
5682;SDS011;2864;49.220;8.654;2023-07-02T00:35:15;7.73;;;5.60;;
5682;SDS011;2864;49.220;8.654;2023-07-02T00:37:41;6.03;;;4.73;;
5682;SDS011;2864;49.220;8.654;2023-07-02T00:40:07;5.77;;;4.97;;
5682;SDS011;2864;49.220;8.654;2023-07-02T00:42:33;6.37;;;4.93;;
5682;SDS011;2864;49.220;8.654;2023-07-02T00:44:59;6.93;;;4.90;;
5682;SDS011;2864;49.220;8.654;2023-07-02T00:47:28;5.20;;;4.70;;
5682;SDS011;2864;49.220;8.654;2023-07-02T00:49:54;14.63;;;5.20;;
5682;SDS011;2864;49.220;8.654;2023-07-02T00:52:20;5.80;;;4.70;;
5682;SDS011;2864;49.220;8.654;2023-07-02T00:54:46;5.13;;;4.53;;
5682;SDS011;2864;49.220;8.654;2023-07-02T00:57:11;5.27;;;4.77;;
5682;SDS011;2864;49.220;8.654;2023-07-02T00:59:37;7.07;;;5.10;;
5682;SDS011;2864;49.220;8.654;2023-07-02T01:02:03;5.97;;;5.37;;
5682;SDS011;2864;49.220;8.654;2023-07-02T01:04:30;5.47;;;4.70;;
5682;SDS011;2864;49.220;8.654;2023-07-02T01:06:56;5.60;;;4.87;;
5682;SDS011;2864;49.220;8.654;2023-07-02T01:09:25;7.60;;;4.60;;
5682;SDS011;2864;49.220;8.654;2023-07-02T01:11:55;5.70;;;4.63;;
5682;SDS011;2864;49.220;8.654;2023-07-02T01:14:25;6.50;;;5.10;;
5682;SDS011;2864;49.220;8.654;2023-07-02T01:16:51;5.30;;;4.80;;
5682;SDS011;2864;49.220;8.654;2023-07-02T01:22:05;5.73;;;4.80;;
5682;SDS011;2864;49.220;8.654;2023-07-02T01:24:31;5.93;;;4.67;;
5682;SDS011;2864;49.220;8.654;2023-07-02T01:26:57;6.70;;;3.93;;
5682;SDS011;2864;49.220;8.654;2023-07-02T01:29:28;6.37;;;4.67;;
5682;SDS011;2864;49.220;8.654;2023-07-02T01:31:54;6.83;;;4.40;;
5682;SDS011;2864;49.220;8.654;2023-07-02T01:37:42;5.80;;;4.47;;
5682;SDS011;2864;49.220;8.654;2023-07-02T01:40:07;5.37;;;3.80;;
5682;SDS011;2864;49.220;8.654;2023-07-02T01:42:34;6.03;;;4.17;;
5682;SDS011;2864;49.220;8.654;2023-07-02T01:45:00;4.77;;;4.00;;
5682;SDS011;2864;49.220;8.654;2023-07-02T01:47:25;5.77;;;4.20;;
5682;SDS011;2864;49.220;8.654;2023-07-02T01:49:51;4.27;;;3.60;;
5682;SDS011;2864;49.220;8.654;2023-07-02T01:52:16;4.00;;;3.53;;
5682;SDS011;2864;49.220;8.654;2023-07-02T01:54:42;6.73;;;3.60;;
5682;SDS011;2864;49.220;8.654;2023-07-02T01:57:09;6.87;;;3.67;;
5682;SDS011;2864;49.220;8.654;2023-07-02T01:59:34;6.17;;;3.70;;
5682;SDS011;2864;49.220;8.654;2023-07-02T02:02:00;6.70;;;3.60;;
5682;SDS011;2864;49.220;8.654;2023-07-02T02:04:26;7.13;;;3.60;;
5682;SDS011;2864;49.220;8.654;2023-07-02T02:06:51;4.40;;;3.50;;
5682;SDS011;2864;49.220;8.654;2023-07-02T02:09:17;4.53;;;3.30;;
5682;SDS011;2864;49.220;8.654;2023-07-02T02:11:44;5.93;;;3.60;;
5682;SDS011;2864;49.220;8.654;2023-07-02T02:14:14;8.23;;;3.50;;
5682;SDS011;2864;49.220;8.654;2023-07-02T02:16:39;4.13;;;3.67;;
5682;SDS011;2864;49.220;8.654;2023-07-02T02:19:05;6.77;;;3.40;;
5682;SDS011;2864;49.220;8.654;2023-07-02T02:21:30;4.53;;;3.40;;
5682;SDS011;2864;49.220;8.654;2023-07-02T02:23:56;4.83;;;3.40;;
5682;SDS011;2864;49.220;8.654;2023-07-02T02:26:21;5.40;;;3.37;;
5682;SDS011;2864;49.220;8.654;2023-07-02T02:28:48;3.97;;;3.50;;
5682;SDS011;2864;49.220;8.654;2023-07-02T02:31:14;3.77;;;3.20;;
5682;SDS011;2864;49.220;8.654;2023-07-02T02:33:40;4.30;;;3.10;;
5682;SDS011;2864;49.220;8.654;2023-07-02T02:36:05;3.97;;;3.20;;
5682;SDS011;2864;49.220;8.654;2023-07-02T02:38:31;5.43;;;3.20;;
5682;SDS011;2864;49.220;8.654;2023-07-02T02:40:56;7.10;;;3.50;;
5682;SDS011;2864;49.220;8.654;2023-07-02T02:43:22;3.77;;;3.40;;
5682;SDS011;2864;49.220;8.654;2023-07-02T02:45:48;5.67;;;3.10;;
5682;SDS011;2864;49.220;8.654;2023-07-02T02:48:13;7.67;;;3.17;;
5682;SDS011;2864;49.220;8.654;2023-07-02T02:50:39;5.07;;;3.20;;
5682;SDS011;2864;49.220;8.654;2023-07-02T02:53:06;4.43;;;3.20;;
5682;SDS011;2864;49.220;8.654;2023-07-02T02:55:32;3.53;;;3.13;;
5682;SDS011;2864;49.220;8.654;2023-07-02T02:57:57;5.13;;;3.20;;
5682;SDS011;2864;49.220;8.654;2023-07-02T03:00:23;4.70;;;3.30;;
5682;SDS011;2864;49.220;8.654;2023-07-02T03:02:48;5.53;;;3.13;;
5682;SDS011;2864;49.220;8.654;2023-07-02T03:05:14;3.53;;;3.00;;
5682;SDS011;2864;49.220;8.654;2023-07-02T03:07:41;4.00;;;3.23;;
5682;SDS011;2864;49.220;8.654;2023-07-02T03:10:07;4.13;;;2.73;;
5682;SDS011;2864;49.220;8.654;2023-07-02T03:12:33;4.17;;;3.40;;
5682;SDS011;2864;49.220;8.654;2023-07-02T03:14:58;5.20;;;3.20;;
5682;SDS011;2864;49.220;8.654;2023-07-02T03:17:24;8.27;;;3.00;;
5682;SDS011;2864;49.220;8.654;2023-07-02T03:19:49;5.30;;;3.40;;
5682;SDS011;2864;49.220;8.654;2023-07-02T03:22:15;5.50;;;3.10;;
5682;SDS011;2864;49.220;8.654;2023-07-02T03:24:41;7.30;;;3.43;;
5682;SDS011;2864;49.220;8.654;2023-07-02T03:27:06;5.10;;;3.07;;
5682;SDS011;2864;49.220;8.654;2023-07-02T03:29:33;4.40;;;3.30;;
5682;SDS011;2864;49.220;8.654;2023-07-02T03:31:59;7.30;;;3.17;;
5682;SDS011;2864;49.220;8.654;2023-07-02T03:34:25;5.57;;;3.37;;
5682;SDS011;2864;49.220;8.654;2023-07-02T03:36:51;5.47;;;3.07;;
5682;SDS011;2864;49.220;8.654;2023-07-02T03:39:16;4.07;;;2.90;;
5682;SDS011;2864;49.220;8.654;2023-07-02T03:41:42;6.03;;;3.27;;
5682;SDS011;2864;49.220;8.654;2023-07-02T03:44:08;7.77;;;3.30;;
5682;SDS011;2864;49.220;8.654;2023-07-02T03:46:34;5.43;;;3.70;;
5682;SDS011;2864;49.220;8.654;2023-07-02T03:48:59;4.63;;;3.63;;
5682;SDS011;2864;49.220;8.654;2023-07-02T03:51:25;7.87;;;4.00;;
5682;SDS011;2864;49.220;8.654;2023-07-02T03:53:51;9.17;;;4.20;;
5682;SDS011;2864;49.220;8.654;2023-07-02T03:56:16;7.97;;;4.43;;
5682;SDS011;2864;49.220;8.654;2023-07-02T03:58:42;5.70;;;3.63;;
5682;SDS011;2864;49.220;8.654;2023-07-02T04:01:08;5.50;;;3.67;;
5682;SDS011;2864;49.220;8.654;2023-07-02T04:03:33;8.10;;;3.90;;
5682;SDS011;2864;49.220;8.654;2023-07-02T04:05:59;5.63;;;3.63;;
5682;SDS011;2864;49.220;8.654;2023-07-02T04:08:24;8.17;;;3.80;;
5682;SDS011;2864;49.220;8.654;2023-07-02T04:10:53;7.57;;;3.83;;
5682;SDS011;2864;49.220;8.654;2023-07-02T04:13:18;6.37;;;3.80;;
5682;SDS011;2864;49.220;8.654;2023-07-02T04:15:44;5.00;;;3.67;;
5682;SDS011;2864;49.220;8.654;2023-07-02T04:18:10;6.70;;;3.60;;
5682;SDS011;2864;49.220;8.654;2023-07-02T04:20:35;4.67;;;3.53;;
5682;SDS011;2864;49.220;8.654;2023-07-02T04:23:03;8.63;;;4.27;;
5682;SDS011;2864;49.220;8.654;2023-07-02T04:25:32;5.27;;;3.40;;
5682;SDS011;2864;49.220;8.654;2023-07-02T04:27:58;5.73;;;3.80;;
5682;SDS011;2864;49.220;8.654;2023-07-02T04:30:24;5.63;;;3.77;;
5682;SDS011;2864;49.220;8.654;2023-07-02T04:32:50;6.27;;;3.87;;
5682;SDS011;2864;49.220;8.654;2023-07-02T04:35:16;8.60;;;4.00;;
5682;SDS011;2864;49.220;8.654;2023-07-02T04:37:42;7.93;;;3.67;;
5682;SDS011;2864;49.220;8.654;2023-07-02T04:40:08;6.97;;;3.80;;
5682;SDS011;2864;49.220;8.654;2023-07-02T04:42:37;6.13;;;4.10;;
5682;SDS011;2864;49.220;8.654;2023-07-02T04:45:04;6.93;;;3.90;;
5682;SDS011;2864;49.220;8.654;2023-07-02T04:47:30;8.97;;;3.77;;
5682;SDS011;2864;49.220;8.654;2023-07-02T04:49:56;11.50;;;4.13;;
5682;SDS011;2864;49.220;8.654;2023-07-02T04:52:21;6.33;;;4.10;;
5682;SDS011;2864;49.220;8.654;2023-07-02T04:54:47;6.20;;;4.20;;
5682;SDS011;2864;49.220;8.654;2023-07-02T04:57:13;6.70;;;3.60;;
5682;SDS011;2864;49.220;8.654;2023-07-02T04:59:39;5.70;;;3.70;;
5682;SDS011;2864;49.220;8.654;2023-07-02T05:02:06;9.57;;;3.77;;
5682;SDS011;2864;49.220;8.654;2023-07-02T05:04:31;5.47;;;3.60;;
5682;SDS011;2864;49.220;8.654;2023-07-02T05:06:57;8.77;;;3.70;;
5682;SDS011;2864;49.220;8.654;2023-07-02T05:09:24;6.00;;;3.87;;
5682;SDS011;2864;49.220;8.654;2023-07-02T05:11:50;5.80;;;4.23;;
5682;SDS011;2864;49.220;8.654;2023-07-02T05:14:15;11.17;;;4.47;;
5682;SDS011;2864;49.220;8.654;2023-07-02T05:16:41;9.27;;;4.20;;
5682;SDS011;2864;49.220;8.654;2023-07-02T05:19:07;5.87;;;4.10;;
5682;SDS011;2864;49.220;8.654;2023-07-02T05:21:32;10.60;;;5.20;;
5682;SDS011;2864;49.220;8.654;2023-07-02T05:23:57;10.50;;;5.23;;
5682;SDS011;2864;49.220;8.654;2023-07-02T05:26:23;12.80;;;5.10;;
5682;SDS011;2864;49.220;8.654;2023-07-02T05:28:49;9.77;;;5.27;;
5682;SDS011;2864;49.220;8.654;2023-07-02T05:31:14;11.23;;;5.27;;
5682;SDS011;2864;49.220;8.654;2023-07-02T05:33:40;13.57;;;5.87;;
5682;SDS011;2864;49.220;8.654;2023-07-02T05:36:05;11.37;;;5.67;;
5682;SDS011;2864;49.220;8.654;2023-07-02T05:38:31;8.17;;;5.40;;
5682;SDS011;2864;49.220;8.654;2023-07-02T05:40:57;10.77;;;6.33;;
5682;SDS011;2864;49.220;8.654;2023-07-02T05:43:23;10.33;;;6.20;;
5682;SDS011;2864;49.220;8.654;2023-07-02T05:45:49;12.40;;;6.43;;
5682;SDS011;2864;49.220;8.654;2023-07-02T05:48:16;11.30;;;6.53;;
5682;SDS011;2864;49.220;8.654;2023-07-02T05:50:41;13.60;;;6.57;;
5682;SDS011;2864;49.220;8.654;2023-07-02T05:53:07;10.60;;;6.60;;
5682;SDS011;2864;49.220;8.654;2023-07-02T05:55:34;11.00;;;6.97;;
5682;SDS011;2864;49.220;8.654;2023-07-02T05:57:59;10.50;;;6.90;;
5682;SDS011;2864;49.220;8.654;2023-07-02T06:00:26;14.17;;;7.33;;
5682;SDS011;2864;49.220;8.654;2023-07-02T06:02:52;15.63;;;7.70;;
5682;SDS011;2864;49.220;8.654;2023-07-02T06:05:17;14.97;;;7.50;;
5682;SDS011;2864;49.220;8.654;2023-07-02T06:07:43;13.80;;;7.57;;
5682;SDS011;2864;49.220;8.654;2023-07-02T06:10:09;11.13;;;7.53;;
5682;SDS011;2864;49.220;8.654;2023-07-02T06:12:34;15.90;;;8.33;;
5682;SDS011;2864;49.220;8.654;2023-07-02T06:15:00;16.67;;;8.20;;
5682;SDS011;2864;49.220;8.654;2023-07-02T06:17:27;14.90;;;8.20;;
5682;SDS011;2864;49.220;8.654;2023-07-02T06:19:55;14.17;;;8.20;;
5682;SDS011;2864;49.220;8.654;2023-07-02T06:22:21;17.37;;;8.10;;
5682;SDS011;2864;49.220;8.654;2023-07-02T06:24:47;13.67;;;7.97;;
5682;SDS011;2864;49.220;8.654;2023-07-02T06:27:12;15.87;;;8.07;;
5682;SDS011;2864;49.220;8.654;2023-07-02T06:29:38;16.30;;;7.93;;
5682;SDS011;2864;49.220;8.654;2023-07-02T06:32:03;15.40;;;7.47;;
5682;SDS011;2864;49.220;8.654;2023-07-02T06:34:29;12.70;;;7.80;;
5682;SDS011;2864;49.220;8.654;2023-07-02T06:36:55;11.80;;;7.57;;
5682;SDS011;2864;49.220;8.654;2023-07-02T06:39:20;18.63;;;8.23;;
5682;SDS011;2864;49.220;8.654;2023-07-02T06:41:46;15.10;;;8.57;;
5682;SDS011;2864;49.220;8.654;2023-07-02T06:44:11;11.87;;;8.23;;
5682;SDS011;2864;49.220;8.654;2023-07-02T06:46:37;12.43;;;8.07;;
5682;SDS011;2864;49.220;8.654;2023-07-02T06:49:03;17.13;;;8.40;;
5682;SDS011;2864;49.220;8.654;2023-07-02T06:51:28;14.23;;;9.03;;
5682;SDS011;2864;49.220;8.654;2023-07-02T06:53:54;11.87;;;7.97;;
5682;SDS011;2864;49.220;8.654;2023-07-02T06:56:19;15.10;;;8.30;;
5682;SDS011;2864;49.220;8.654;2023-07-02T06:58:45;12.70;;;7.13;;
5682;SDS011;2864;49.220;8.654;2023-07-02T07:01:11;13.60;;;7.87;;
5682;SDS011;2864;49.220;8.654;2023-07-02T07:03:36;16.13;;;7.90;;
5682;SDS011;2864;49.220;8.654;2023-07-02T07:06:02;10.10;;;6.57;;
5682;SDS011;2864;49.220;8.654;2023-07-02T07:08:28;12.47;;;6.57;;
5682;SDS011;2864;49.220;8.654;2023-07-02T07:10:54;12.50;;;7.50;;
5682;SDS011;2864;49.220;8.654;2023-07-02T07:13:21;12.77;;;7.17;;
5682;SDS011;2864;49.220;8.654;2023-07-02T07:15:46;13.57;;;7.10;;
5682;SDS011;2864;49.220;8.654;2023-07-02T07:18:12;12.37;;;7.80;;
5682;SDS011;2864;49.220;8.654;2023-07-02T07:20:38;12.97;;;7.77;;
5682;SDS011;2864;49.220;8.654;2023-07-02T07:23:05;14.17;;;8.00;;
5682;SDS011;2864;49.220;8.654;2023-07-02T07:25:31;15.10;;;8.57;;
5682;SDS011;2864;49.220;8.654;2023-07-02T07:27:57;16.57;;;7.57;;
5682;SDS011;2864;49.220;8.654;2023-07-02T07:30:24;14.67;;;8.37;;
5682;SDS011;2864;49.220;8.654;2023-07-02T07:32:50;17.60;;;9.20;;
5682;SDS011;2864;49.220;8.654;2023-07-02T07:35:17;16.47;;;8.70;;
5682;SDS011;2864;49.220;8.654;2023-07-02T07:37:43;17.63;;;8.73;;
5682;SDS011;2864;49.220;8.654;2023-07-02T07:40:09;20.80;;;8.33;;
5682;SDS011;2864;49.220;8.654;2023-07-02T07:42:35;17.03;;;9.20;;
5682;SDS011;2864;49.220;8.654;2023-07-02T07:45:01;17.57;;;9.73;;
5682;SDS011;2864;49.220;8.654;2023-07-02T07:47:28;17.30;;;8.70;;
5682;SDS011;2864;49.220;8.654;2023-07-02T07:49:53;15.63;;;8.97;;
5682;SDS011;2864;49.220;8.654;2023-07-02T07:52:19;19.77;;;9.10;;
5682;SDS011;2864;49.220;8.654;2023-07-02T07:54:45;13.43;;;8.90;;
5682;SDS011;2864;49.220;8.654;2023-07-02T07:57:11;15.23;;;9.30;;
5682;SDS011;2864;49.220;8.654;2023-07-02T07:59:36;16.17;;;9.83;;
5682;SDS011;2864;49.220;8.654;2023-07-02T08:02:02;19.17;;;10.37;;
5682;SDS011;2864;49.220;8.654;2023-07-02T08:04:28;19.97;;;9.93;;
5682;SDS011;2864;49.220;8.654;2023-07-02T08:06:54;19.90;;;10.60;;
5682;SDS011;2864;49.220;8.654;2023-07-02T08:09:20;17.33;;;10.03;;
5682;SDS011;2864;49.220;8.654;2023-07-02T08:11:46;16.50;;;10.47;;
5682;SDS011;2864;49.220;8.654;2023-07-02T08:14:12;18.93;;;10.70;;
5682;SDS011;2864;49.220;8.654;2023-07-02T08:16:37;17.90;;;10.43;;
5682;SDS011;2864;49.220;8.654;2023-07-02T08:19:03;17.53;;;10.17;;
5682;SDS011;2864;49.220;8.654;2023-07-02T08:21:29;16.40;;;10.43;;
5682;SDS011;2864;49.220;8.654;2023-07-02T08:23:54;19.10;;;10.73;;
5682;SDS011;2864;49.220;8.654;2023-07-02T08:26:20;17.30;;;11.20;;
5682;SDS011;2864;49.220;8.654;2023-07-02T08:28:45;19.67;;;10.63;;
5682;SDS011;2864;49.220;8.654;2023-07-02T08:31:11;17.57;;;11.90;;
5682;SDS011;2864;49.220;8.654;2023-07-02T08:33:37;20.23;;;11.13;;
5682;SDS011;2864;49.220;8.654;2023-07-02T08:36:02;20.70;;;11.67;;
5682;SDS011;2864;49.220;8.654;2023-07-02T08:38:28;21.40;;;11.67;;
5682;SDS011;2864;49.220;8.654;2023-07-02T08:40:54;22.80;;;12.03;;
5682;SDS011;2864;49.220;8.654;2023-07-02T08:43:19;17.00;;;11.73;;
5682;SDS011;2864;49.220;8.654;2023-07-02T08:45:45;25.10;;;12.23;;
5682;SDS011;2864;49.220;8.654;2023-07-02T08:48:11;20.93;;;11.90;;
5682;SDS011;2864;49.220;8.654;2023-07-02T08:50:37;22.57;;;12.00;;
5682;SDS011;2864;49.220;8.654;2023-07-02T08:53:02;25.43;;;12.33;;
5682;SDS011;2864;49.220;8.654;2023-07-02T08:55:28;19.70;;;12.07;;
5682;SDS011;2864;49.220;8.654;2023-07-02T08:57:55;22.10;;;13.47;;
5682;SDS011;2864;49.220;8.654;2023-07-02T09:00:25;23.37;;;13.33;;
5682;SDS011;2864;49.220;8.654;2023-07-02T09:02:51;21.90;;;13.27;;
5682;SDS011;2864;49.220;8.654;2023-07-02T09:05:17;21.03;;;12.70;;
5682;SDS011;2864;49.220;8.654;2023-07-02T09:07:46;21.33;;;12.53;;
5682;SDS011;2864;49.220;8.654;2023-07-02T09:10:25;25.40;;;12.90;;
5682;SDS011;2864;49.220;8.654;2023-07-02T09:13:07;23.13;;;13.90;;
5682;SDS011;2864;49.220;8.654;2023-07-02T09:15:38;21.93;;;13.13;;
5682;SDS011;2864;49.220;8.654;2023-07-02T09:18:14;22.73;;;13.63;;
5682;SDS011;2864;49.220;8.654;2023-07-02T09:20:41;23.07;;;14.03;;
5682;SDS011;2864;49.220;8.654;2023-07-02T09:23:06;25.87;;;14.20;;
5682;SDS011;2864;49.220;8.654;2023-07-02T09:25:38;24.57;;;14.03;;
5682;SDS011;2864;49.220;8.654;2023-07-02T09:28:18;25.10;;;14.63;;
5682;SDS011;2864;49.220;8.654;2023-07-02T09:30:51;25.43;;;14.20;;
5682;SDS011;2864;49.220;8.654;2023-07-02T09:33:21;23.17;;;14.03;;
5682;SDS011;2864;49.220;8.654;2023-07-02T09:35:51;22.70;;;14.67;;
5682;SDS011;2864;49.220;8.654;2023-07-02T09:38:17;23.00;;;14.43;;
5682;SDS011;2864;49.220;8.654;2023-07-02T09:40:45;24.43;;;15.03;;
5682;SDS011;2864;49.220;8.654;2023-07-02T09:43:14;30.13;;;15.70;;
5682;SDS011;2864;49.220;8.654;2023-07-02T09:45:44;22.17;;;13.83;;
5682;SDS011;2864;49.220;8.654;2023-07-02T09:48:12;25.00;;;14.07;;
5682;SDS011;2864;49.220;8.654;2023-07-02T09:50:45;24.27;;;15.03;;
5682;SDS011;2864;49.220;8.654;2023-07-02T09:53:12;23.87;;;14.63;;
5682;SDS011;2864;49.220;8.654;2023-07-02T09:55:38;23.00;;;14.30;;
5682;SDS011;2864;49.220;8.654;2023-07-02T09:58:08;24.30;;;15.40;;
5682;SDS011;2864;49.220;8.654;2023-07-02T10:00:34;23.27;;;14.10;;
5682;SDS011;2864;49.220;8.654;2023-07-02T10:03:01;24.87;;;14.40;;
5682;SDS011;2864;49.220;8.654;2023-07-02T10:07:53;25.27;;;14.57;;
5682;SDS011;2864;49.220;8.654;2023-07-02T10:10:29;23.03;;;14.40;;
5682;SDS011;2864;49.220;8.654;2023-07-02T10:12:55;21.97;;;14.17;;
5682;SDS011;2864;49.220;8.654;2023-07-02T10:15:27;26.13;;;15.30;;
5682;SDS011;2864;49.220;8.654;2023-07-02T10:17:56;26.20;;;14.80;;
5682;SDS011;2864;49.220;8.654;2023-07-02T10:23:03;24.57;;;14.13;;
5682;SDS011;2864;49.220;8.654;2023-07-02T10:25:33;24.30;;;14.40;;
5682;SDS011;2864;49.220;8.654;2023-07-02T10:28:13;22.23;;;14.27;;
5682;SDS011;2864;49.220;8.654;2023-07-02T10:30:39;21.17;;;13.20;;
5682;SDS011;2864;49.220;8.654;2023-07-02T10:33:15;23.20;;;14.50;;
5682;SDS011;2864;49.220;8.654;2023-07-02T10:35:43;23.23;;;13.53;;
5682;SDS011;2864;49.220;8.654;2023-07-02T10:38:21;22.60;;;14.10;;
5682;SDS011;2864;49.220;8.654;2023-07-02T10:40:55;22.37;;;14.00;;
5682;SDS011;2864;49.220;8.654;2023-07-02T10:43:28;23.17;;;13.97;;
5682;SDS011;2864;49.220;8.654;2023-07-02T10:45:55;22.03;;;14.53;;
5682;SDS011;2864;49.220;8.654;2023-07-02T10:48:21;24.50;;;13.90;;
5682;SDS011;2864;49.220;8.654;2023-07-02T10:50:47;23.03;;;14.57;;
5682;SDS011;2864;49.220;8.654;2023-07-02T10:53:17;22.23;;;13.97;;
5682;SDS011;2864;49.220;8.654;2023-07-02T10:55:43;23.97;;;14.67;;
5682;SDS011;2864;49.220;8.654;2023-07-02T10:58:10;27.53;;;15.40;;
5682;SDS011;2864;49.220;8.654;2023-07-02T11:00:43;25.80;;;14.37;;
5682;SDS011;2864;49.220;8.654;2023-07-02T11:03:16;26.57;;;14.30;;
5682;SDS011;2864;49.220;8.654;2023-07-02T11:05:43;22.47;;;14.53;;
5682;SDS011;2864;49.220;8.654;2023-07-02T11:08:08;22.13;;;13.10;;
5682;SDS011;2864;49.220;8.654;2023-07-02T11:10:34;25.47;;;14.07;;
5682;SDS011;2864;49.220;8.654;2023-07-02T11:13:09;22.43;;;14.77;;
5682;SDS011;2864;49.220;8.654;2023-07-02T11:15:36;25.70;;;14.20;;
5682;SDS011;2864;49.220;8.654;2023-07-02T11:18:11;22.87;;;14.37;;
5682;SDS011;2864;49.220;8.654;2023-07-02T11:20:39;25.27;;;14.60;;
5682;SDS011;2864;49.220;8.654;2023-07-02T11:23:16;24.70;;;14.73;;
5682;SDS011;2864;49.220;8.654;2023-07-02T11:25:58;24.88;;;13.75;;
5682;SDS011;2864;49.220;8.654;2023-07-02T11:28:25;23.52;;;13.80;;
5682;SDS011;2864;49.220;8.654;2023-07-02T11:30:52;24.48;;;14.10;;
5682;SDS011;2864;49.220;8.654;2023-07-02T11:33:17;23.30;;;14.50;;
5682;SDS011;2864;49.220;8.654;2023-07-02T11:35:43;22.38;;;13.77;;
5682;SDS011;2864;49.220;8.654;2023-07-02T11:38:09;23.40;;;14.63;;
5682;SDS011;2864;49.220;8.654;2023-07-02T11:40:38;20.92;;;12.35;;
5682;SDS011;2864;49.220;8.654;2023-07-02T11:43:04;21.05;;;13.70;;
5682;SDS011;2864;49.220;8.654;2023-07-02T11:45:31;21.10;;;13.52;;
5682;SDS011;2864;49.220;8.654;2023-07-02T11:47:56;21.50;;;13.80;;
5682;SDS011;2864;49.220;8.654;2023-07-02T11:50:22;22.20;;;14.38;;
5682;SDS011;2864;49.220;8.654;2023-07-02T11:52:48;21.88;;;13.82;;
5682;SDS011;2864;49.220;8.654;2023-07-02T11:55:13;20.20;;;12.93;;
5682;SDS011;2864;49.220;8.654;2023-07-02T11:57:39;21.98;;;12.88;;
5682;SDS011;2864;49.220;8.654;2023-07-02T12:00:04;20.35;;;13.48;;
5682;SDS011;2864;49.220;8.654;2023-07-02T12:02:30;21.70;;;13.43;;
5682;SDS011;2864;49.220;8.654;2023-07-02T12:04:56;21.38;;;13.68;;
5682;SDS011;2864;49.220;8.654;2023-07-02T12:07:22;21.38;;;13.48;;
5682;SDS011;2864;49.220;8.654;2023-07-02T12:09:47;20.70;;;14.25;;
5682;SDS011;2864;49.220;8.654;2023-07-02T12:12:13;22.23;;;13.40;;
5682;SDS011;2864;49.220;8.654;2023-07-02T12:14:38;26.70;;;14.65;;
5682;SDS011;2864;49.220;8.654;2023-07-02T12:17:08;24.15;;;14.73;;
5682;SDS011;2864;49.220;8.654;2023-07-02T12:19:34;24.17;;;14.38;;
5682;SDS011;2864;49.220;8.654;2023-07-02T12:21:59;26.02;;;14.80;;
5682;SDS011;2864;49.220;8.654;2023-07-02T12:24:25;23.30;;;14.68;;
5682;SDS011;2864;49.220;8.654;2023-07-02T12:26:50;21.23;;;14.30;;
5682;SDS011;2864;49.220;8.654;2023-07-02T12:29:16;27.85;;;14.55;;
5682;SDS011;2864;49.220;8.654;2023-07-02T12:31:41;21.27;;;12.90;;
5682;SDS011;2864;49.220;8.654;2023-07-02T12:34:07;21.58;;;14.27;;
5682;SDS011;2864;49.220;8.654;2023-07-02T12:36:32;24.38;;;14.30;;
5682;SDS011;2864;49.220;8.654;2023-07-02T12:38:58;22.48;;;14.73;;
5682;SDS011;2864;49.220;8.654;2023-07-02T12:41:23;24.60;;;14.15;;
5682;SDS011;2864;49.220;8.654;2023-07-02T12:43:49;21.13;;;14.05;;
5682;SDS011;2864;49.220;8.654;2023-07-02T12:46:15;24.05;;;15.02;;
5682;SDS011;2864;49.220;8.654;2023-07-02T12:48:40;23.63;;;14.35;;
5682;SDS011;2864;49.220;8.654;2023-07-02T12:51:06;19.85;;;14.27;;
5682;SDS011;2864;49.220;8.654;2023-07-02T12:53:31;20.13;;;14.02;;
5682;SDS011;2864;49.220;8.654;2023-07-02T12:55:57;24.40;;;13.95;;
5682;SDS011;2864;49.220;8.654;2023-07-02T12:58:22;21.73;;;14.20;;
5682;SDS011;2864;49.220;8.654;2023-07-02T13:00:48;18.42;;;13.68;;
5682;SDS011;2864;49.220;8.654;2023-07-02T13:03:14;23.73;;;14.77;;
5682;SDS011;2864;49.220;8.654;2023-07-02T13:05:42;22.67;;;14.13;;
5682;SDS011;2864;49.220;8.654;2023-07-02T13:08:07;21.42;;;13.82;;
5682;SDS011;2864;49.220;8.654;2023-07-02T13:10:34;22.08;;;14.80;;
5682;SDS011;2864;49.220;8.654;2023-07-02T13:13:00;22.17;;;15.40;;
5682;SDS011;2864;49.220;8.654;2023-07-02T13:15:26;25.95;;;14.90;;
5682;SDS011;2864;49.220;8.654;2023-07-02T13:17:51;22.52;;;14.75;;
5682;SDS011;2864;49.220;8.654;2023-07-02T13:20:17;21.65;;;13.95;;
5682;SDS011;2864;49.220;8.654;2023-07-02T13:22:42;23.00;;;14.50;;
5682;SDS011;2864;49.220;8.654;2023-07-02T13:25:08;26.58;;;14.70;;
5682;SDS011;2864;49.220;8.654;2023-07-02T13:27:34;21.55;;;15.05;;
5682;SDS011;2864;49.220;8.654;2023-07-02T13:30:00;22.60;;;15.23;;
5682;SDS011;2864;49.220;8.654;2023-07-02T13:32:25;22.98;;;15.43;;
5682;SDS011;2864;49.220;8.654;2023-07-02T13:34:51;23.75;;;13.82;;
5682;SDS011;2864;49.220;8.654;2023-07-02T13:37:17;20.92;;;14.50;;
5682;SDS011;2864;49.220;8.654;2023-07-02T13:39:46;22.33;;;14.57;;
5682;SDS011;2864;49.220;8.654;2023-07-02T13:42:13;20.80;;;14.55;;
5682;SDS011;2864;49.220;8.654;2023-07-02T13:44:38;23.85;;;14.40;;
5682;SDS011;2864;49.220;8.654;2023-07-02T13:47:04;24.88;;;14.95;;
5682;SDS011;2864;49.220;8.654;2023-07-02T13:49:31;23.20;;;14.73;;
5682;SDS011;2864;49.220;8.654;2023-07-02T13:51:57;20.45;;;14.00;;
5682;SDS011;2864;49.220;8.654;2023-07-02T13:54:22;20.70;;;13.80;;
5682;SDS011;2864;49.220;8.654;2023-07-02T13:56:48;22.70;;;14.77;;
5682;SDS011;2864;49.220;8.654;2023-07-02T13:59:14;23.85;;;13.60;;
5682;SDS011;2864;49.220;8.654;2023-07-02T14:01:41;21.67;;;13.85;;
5682;SDS011;2864;49.220;8.654;2023-07-02T14:04:08;22.20;;;14.63;;
5682;SDS011;2864;49.220;8.654;2023-07-02T14:06:34;20.73;;;14.18;;
5682;SDS011;2864;49.220;8.654;2023-07-02T14:09:00;20.23;;;14.32;;
5682;SDS011;2864;49.220;8.654;2023-07-02T14:11:26;20.38;;;14.10;;
5682;SDS011;2864;49.220;8.654;2023-07-02T14:13:52;20.73;;;13.77;;
5682;SDS011;2864;49.220;8.654;2023-07-02T14:16:19;20.23;;;13.60;;
5682;SDS011;2864;49.220;8.654;2023-07-02T14:18:44;20.38;;;13.70;;
5682;SDS011;2864;49.220;8.654;2023-07-02T14:21:10;19.35;;;13.95;;
5682;SDS011;2864;49.220;8.654;2023-07-02T14:23:35;22.40;;;14.10;;
5682;SDS011;2864;49.220;8.654;2023-07-02T14:26:01;22.42;;;15.13;;
5682;SDS011;2864;49.220;8.654;2023-07-02T14:28:27;19.38;;;14.05;;
5682;SDS011;2864;49.220;8.654;2023-07-02T14:31:03;20.13;;;14.40;;
5682;SDS011;2864;49.220;8.654;2023-07-02T14:33:31;23.52;;;14.48;;
5682;SDS011;2864;49.220;8.654;2023-07-02T14:35:58;21.35;;;14.57;;
5682;SDS011;2864;49.220;8.654;2023-07-02T14:38:24;22.00;;;14.52;;
5682;SDS011;2864;49.220;8.654;2023-07-02T14:40:50;24.40;;;14.23;;
5682;SDS011;2864;49.220;8.654;2023-07-02T14:43:16;24.98;;;14.85;;
5682;SDS011;2864;49.220;8.654;2023-07-02T14:45:48;21.05;;;14.18;;
5682;SDS011;2864;49.220;8.654;2023-07-02T14:48:15;23.98;;;14.73;;
5682;SDS011;2864;49.220;8.654;2023-07-02T14:50:47;23.85;;;14.80;;
5682;SDS011;2864;49.220;8.654;2023-07-02T14:53:16;22.63;;;14.10;;
5682;SDS011;2864;49.220;8.654;2023-07-02T14:55:43;23.50;;;14.20;;
5682;SDS011;2864;49.220;8.654;2023-07-02T14:58:10;22.45;;;14.25;;
5682;SDS011;2864;49.220;8.654;2023-07-02T15:00:42;18.63;;;13.05;;
5682;SDS011;2864;49.220;8.654;2023-07-02T15:03:14;20.48;;;13.40;;
5682;SDS011;2864;49.220;8.654;2023-07-02T15:05:41;21.30;;;13.52;;
5682;SDS011;2864;49.220;8.654;2023-07-02T15:08:07;20.33;;;13.73;;